createdAt,value
2023-03-11T00:00:47.406Z,17.00
2023-03-11T00:05:53.822Z,17.00
2023-03-11T00:11:00.755Z,17.00
2023-03-11T00:16:04.667Z,17.10
2023-03-11T00:21:16.321Z,17.00
2023-03-11T00:26:20.047Z,17.00
2023-03-11T00:31:23.560Z,17.00
2023-03-11T00:36:31.694Z,17.00
2023-03-11T00:41:35.607Z,17.10
2023-03-11T00:46:39.140Z,17.00
2023-03-11T00:51:45.114Z,17.00
2023-03-11T00:56:48.610Z,17.10
2023-03-11T01:01:52.222Z,17.00
2023-03-11T01:06:57.031Z,17.10
2023-03-11T01:12:00.631Z,17.10
2023-03-11T01:17:04.103Z,17.10
2023-03-11T01:22:10.323Z,17.00
2023-03-11T01:27:13.921Z,17.00
2023-03-11T01:32:17.438Z,17.10
2023-03-11T01:37:22.359Z,17.00
2023-03-11T01:42:26.061Z,17.10
2023-03-11T01:47:40.687Z,17.00
2023-03-11T01:52:46.293Z,17.10
2023-03-11T01:57:50.204Z,17.00
2023-03-11T02:02:56.169Z,17.10
2023-03-11T02:08:01.735Z,17.00
2023-03-11T02:13:05.311Z,17.00
2023-03-11T02:18:09.416Z,17.00
2023-03-11T02:23:15.894Z,17.00
2023-03-11T02:28:21.509Z,17.00
2023-03-11T02:33:26.719Z,17.00
2023-03-11T02:38:30.193Z,17.10
2023-03-11T02:43:40.724Z,17.00
2023-03-11T02:48:44.815Z,17.10
2023-03-11T02:53:51.028Z,17.10
2023-03-11T02:58:55.906Z,17.00
2023-03-11T03:03:59.429Z,17.00
2023-03-11T03:09:02.982Z,17.10
2023-03-11T03:14:07.864Z,17.00
2023-03-11T03:19:11.396Z,17.00
2023-03-11T03:24:14.845Z,17.00
2023-03-11T03:29:19.794Z,17.10
2023-03-11T03:34:23.300Z,17.00
2023-03-11T03:39:28.741Z,17.00
2023-03-11T03:44:35.022Z,17.00
2023-03-11T03:49:38.493Z,17.00
2023-03-11T03:54:41.958Z,17.00
2023-03-11T03:59:46.800Z,17.00
2023-03-11T04:04:50.325Z,17.00
2023-03-11T04:09:53.763Z,17.00
2023-03-11T04:14:58.687Z,17.00
2023-03-11T04:20:02.202Z,17.00
2023-03-11T04:25:06.351Z,17.00
2023-03-11T04:30:13.023Z,17.00
2023-03-11T04:35:16.500Z,17.10
2023-03-11T04:40:20.165Z,16.90
2023-03-11T04:45:25.104Z,17.00
2023-03-11T04:50:28.666Z,17.00
2023-03-11T04:55:33.537Z,17.00
2023-03-11T05:00:38.335Z,17.00
2023-03-11T05:05:41.691Z,17.00
2023-03-11T05:10:45.051Z,17.00
2023-03-11T05:15:50.036Z,17.10
2023-03-11T05:20:53.650Z,17.10
2023-03-11T05:25:57.026Z,17.00
2023-03-11T05:31:01.874Z,17.00
2023-03-11T05:36:06.971Z,17.10
2023-03-11T05:41:10.369Z,17.10
2023-03-11T05:46:15.197Z,17.00
2023-03-11T05:51:18.613Z,17.00
2023-03-11T05:56:23.208Z,17.00
2023-03-11T06:01:28.041Z,17.10
2023-03-11T06:06:31.514Z,17.10
2023-03-11T06:11:34.929Z,17.00
2023-03-11T06:16:39.721Z,17.00
2023-03-11T06:21:43.252Z,17.10
2023-03-11T06:26:46.972Z,17.00
2023-03-11T06:31:51.863Z,17.10
2023-03-11T06:36:55.989Z,17.10
2023-03-11T06:41:59.350Z,17.00
2023-03-11T06:47:05.291Z,17.10
2023-03-11T06:52:08.860Z,17.10
2023-03-11T06:57:12.533Z,17.10
2023-03-11T07:02:18.808Z,17.00
2023-03-11T07:07:22.195Z,17.00
2023-03-11T07:12:25.695Z,17.10
2023-03-11T07:17:30.590Z,17.10
2023-03-11T07:22:33.952Z,17.10
2023-03-11T07:27:37.353Z,17.10
2023-03-11T07:32:42.940Z,17.00
2023-03-11T07:37:46.350Z,17.10
2023-03-11T07:42:49.768Z,17.10
2023-03-11T07:47:54.650Z,17.10
2023-03-11T07:52:58.049Z,17.00
2023-03-11T07:58:01.442Z,17.00
2023-03-11T08:03:06.413Z,17.10
2023-03-11T08:08:09.781Z,17.00
2023-03-11T08:13:13.347Z,17.10
2023-03-11T08:18:18.130Z,17.00
2023-03-11T08:23:21.463Z,17.00
2023-03-11T08:28:24.856Z,17.00
2023-03-11T08:33:29.677Z,17.00
2023-03-11T08:38:33.465Z,17.00
2023-03-11T08:43:37.048Z,17.00
2023-03-11T08:48:41.832Z,16.90
2023-03-11T08:53:45.416Z,17.10
2023-03-11T08:58:49.122Z,17.10
2023-03-11T09:03:54.053Z,16.90
2023-03-11T09:08:57.632Z,17.10
2023-03-11T09:14:01.014Z,17.10
2023-03-11T09:19:07.680Z,17.00
2023-03-11T09:24:11.158Z,17.10
2023-03-11T09:29:14.555Z,17.10
2023-03-11T09:34:19.529Z,17.10
2023-03-11T09:39:23.190Z,17.00
2023-03-11T09:44:30.990Z,17.10
2023-03-11T09:49:56.545Z,17.10
2023-03-11T09:55:01.174Z,17.00
2023-03-11T10:00:06.759Z,17.10
2023-03-11T10:05:16.272Z,17.10
2023-03-11T10:10:19.887Z,17.10
2023-03-11T10:15:28.189Z,17.10
2023-03-11T10:20:39.971Z,17.10
2023-03-11T10:25:51.700Z,17.00
2023-03-11T10:30:57.798Z,17.10
2023-03-11T10:36:07.612Z,17.20
2023-03-11T10:41:17.397Z,17.50
2023-03-11T10:46:22.461Z,17.60
2023-03-11T10:51:28.898Z,17.50
2023-03-11T10:56:34.082Z,17.60
2023-03-11T11:01:37.606Z,17.60
2023-03-11T11:06:42.532Z,17.70
2023-03-11T11:12:03.490Z,17.80
2023-03-11T11:17:06.972Z,17.90
2023-03-11T11:22:15.688Z,18.00
2023-03-11T11:27:21.980Z,18.20
2023-03-11T11:32:27.362Z,18.30
2023-03-11T11:37:34.826Z,18.40
2023-03-11T11:42:39.734Z,18.50
2023-03-11T11:47:45.544Z,18.70
2023-03-11T11:52:54.397Z,18.80
2023-03-11T11:57:58.494Z,18.70
2023-03-11T12:03:27.115Z,18.80
2023-03-11T12:08:37.951Z,18.90
2023-03-11T12:13:51.176Z,19.00
2023-03-11T12:18:58.356Z,18.90
2023-03-11T12:24:14.223Z,19.00
2023-03-11T12:29:25.978Z,19.00
2023-03-11T12:34:30.057Z,19.00
2023-03-11T12:39:35.887Z,19.10
2023-03-11T12:44:39.832Z,19.10
2023-03-11T12:49:44.321Z,19.10
2023-03-11T12:54:49.699Z,19.30
2023-03-11T13:00:12.579Z,19.30
2023-03-11T13:05:23.068Z,19.30
2023-03-11T13:10:40.167Z,19.40
2023-03-11T13:15:43.606Z,19.40
2023-03-11T13:20:56.261Z,19.50
2023-03-11T13:26:13.092Z,19.60
2023-03-11T13:31:25.775Z,19.60
2023-03-11T13:36:52.714Z,19.60
2023-03-11T13:41:57.732Z,19.70
2023-03-11T13:47:05.997Z,19.60
2023-03-11T13:52:11.219Z,19.70
2023-03-11T13:57:25.591Z,19.80
2023-03-11T14:02:29.223Z,19.70
2023-03-11T14:07:35.384Z,19.70
2023-03-11T14:12:40.646Z,19.70
2023-03-11T14:17:45.299Z,19.90
2023-03-11T14:22:51.671Z,19.80
2023-03-11T14:27:58.424Z,19.90
2023-03-11T14:33:03.951Z,19.90
2023-03-11T15:12:50.060Z,19.60
2023-03-11T15:17:54.716Z,19.70
2023-03-11T15:23:01.392Z,19.80
2023-03-11T15:28:25.497Z,19.70
2023-03-11T15:33:34.694Z,19.80
2023-03-11T15:38:38.160Z,19.90
2023-03-11T15:43:46.991Z,19.80
2023-03-11T15:48:50.623Z,19.90
2023-03-11T15:53:54.484Z,20.00
2023-03-11T15:58:59.372Z,19.90
2023-03-11T16:04:03.142Z,19.90
2023-03-11T16:09:06.594Z,20.00
2023-03-11T16:14:17.160Z,20.10
2023-03-11T16:19:20.525Z,20.20
2023-03-11T16:24:25.088Z,20.40
2023-03-11T16:29:30.723Z,20.50
2023-03-11T16:34:35.114Z,20.60
2023-03-11T16:39:39.082Z,20.60
2023-03-11T16:44:43.841Z,20.40
2023-03-11T16:49:50.531Z,20.50
2023-03-11T16:54:53.872Z,20.50
2023-03-11T16:59:58.709Z,20.60
2023-03-11T17:05:03.114Z,20.50
2023-03-11T17:10:07.670Z,20.60
2023-03-11T17:15:12.881Z,20.60
2023-03-11T17:20:16.250Z,20.60
2023-03-11T17:40:59.333Z,20.90
2023-03-11T17:46:02.698Z,20.80
2023-03-11T17:51:07.411Z,20.80
2023-03-11T17:56:12.917Z,20.80
2023-03-11T18:01:17.492Z,20.70
2023-03-11T18:06:21.804Z,20.80
2023-03-11T18:11:28.301Z,20.80
2023-03-11T18:16:33.822Z,20.80
2023-03-11T18:21:37.263Z,20.70
2023-03-11T18:26:42.051Z,20.70
2023-03-11T18:31:45.425Z,20.70
2023-03-11T18:36:49.565Z,20.70
2023-03-11T18:41:54.394Z,20.70
2023-03-11T18:46:57.724Z,20.70
2023-03-11T18:52:01.102Z,20.70
2023-03-11T18:57:05.901Z,20.70
2023-03-11T19:02:10.692Z,20.70
2023-03-11T19:07:14.230Z,20.90
2023-03-11T19:12:18.992Z,20.80
2023-03-11T19:17:22.382Z,20.80
2023-03-11T19:22:25.924Z,20.80
2023-03-11T19:27:30.698Z,20.80
2023-03-11T19:32:34.100Z,20.80
2023-03-11T19:37:37.462Z,20.80
2023-03-11T19:42:42.291Z,20.80
2023-03-11T19:47:50.118Z,20.80
2023-03-11T19:52:53.559Z,20.70
2023-03-11T19:57:58.314Z,20.80
2023-03-11T20:03:02.879Z,20.80
2023-03-11T20:08:07.495Z,20.80
2023-03-11T20:13:12.487Z,20.70
2023-03-11T20:18:16.014Z,20.70
2023-03-11T20:23:19.397Z,20.60
2023-03-11T20:28:24.256Z,20.60
2023-03-11T20:33:27.714Z,20.70
2023-03-11T20:38:31.135Z,20.50
2023-03-11T20:43:36.567Z,20.60
2023-03-11T20:48:40.100Z,20.60
2023-03-11T20:53:43.809Z,20.60
2023-03-11T20:58:51.138Z,20.60
2023-03-11T21:03:55.372Z,20.50
2023-03-11T21:09:00.539Z,20.50
2023-03-11T21:14:05.895Z,20.50
2023-03-11T21:19:11.623Z,20.40
2023-03-11T21:24:15.414Z,20.40
2023-03-11T21:29:20.354Z,20.40
2023-03-11T21:34:23.774Z,20.50
2023-03-11T21:39:27.323Z,20.40
2023-03-11T21:44:32.290Z,20.40
2023-03-11T21:49:36.027Z,20.40
2023-03-11T21:54:39.469Z,20.30
2023-03-11T21:59:44.261Z,20.30
2023-03-11T22:04:48.601Z,20.30
2023-03-11T22:09:53.437Z,20.20
2023-03-11T22:14:58.380Z,20.20
2023-03-11T22:20:01.956Z,20.20
2023-03-11T22:25:05.713Z,20.10
2023-03-11T22:30:11.888Z,20.10
2023-03-11T22:35:15.447Z,20.10
2023-03-11T22:40:18.937Z,20.00
2023-03-11T22:45:23.828Z,20.00
2023-03-11T22:50:27.209Z,20.10
2023-03-11T22:55:30.571Z,20.10
2023-03-11T23:00:36.828Z,20.00
2023-03-11T23:05:42.247Z,19.90
2023-03-11T23:10:47.863Z,19.90
2023-03-11T23:15:52.697Z,19.90
2023-03-11T23:20:56.171Z,19.90
2023-03-11T23:25:59.560Z,20.00
2023-03-11T23:31:05.446Z,20.00
2023-03-11T23:36:10.630Z,19.90
2023-03-11T23:41:15.710Z,20.00
2023-03-11T23:46:20.868Z,19.90
2023-03-11T23:51:24.393Z,19.90
2023-03-11T23:56:27.728Z,19.90
